• Join FlightAware (Why Join?)
  • Login
  • US Flag GB Flag 
08:11 EDT


 

Airport Tracker/Info


-or-


 

Live Flight TrackerFlight Track Log ✈ USC105 ✈ 11-Apr-2013 ✈ KBKL - KYIP

Flight Track Log - Related Links

Times and Time Zones

All times are in EDT time to prevent confusion due to time zone crossing. See the USC105 flight status page for this flight to view local times or setup timezone preferences in your user account.

Time Position Orientation Groundspeed Altitude Reporting Facility
EDT Latitude Longitude Course Direction KTS MPH feet Rate Location/Type
23:03 41.5358 -81.6761 359° North 113 130 1,600  Level Cleveland Center
23:04 41.5647 -81.7100 319° Northwest 170 196 2,300 780 Climbing Cleveland Center
23:05 41.5892 -81.7547 306° West 149 171 3,300 960 Climbing Cleveland Center
23:06 41.6178 -81.7997 310° West 150 173 4,300 840 Climbing Cleveland Center
23:08 41.6486 -81.8447 313° West 164 189 5,100 840 Climbing Cleveland Center
23:09 41.6878 -81.8900 319° Northwest 184 212 6,000 840 Climbing Cleveland Center
23:10 41.7311 -81.9381 320° Northwest 185 213 7,000 840 Climbing Cleveland Center
23:11 41.7681 -81.9750 323° Northwest 188 216 7,800 540 Climbing Cleveland Center
23:12 41.8156 -82.0208 324° Northwest 211 243 8,100 120 Climbing Cleveland Center
23:12 41.8564 -82.0692 319° Northwest 213 245 8,100 -60 Level Cleveland Center
23:13 41.8975 -82.1231 316° Northwest 208 239 8,000 -60 Descending Cleveland Center
23:14 41.9319 -82.1853 307° West 203 234 8,000  Level Cleveland Center
23:15 41.9711 -82.2281 321° Northwest 207 238 8,000  Level Cleveland Center
23:17 42.0306 -82.2911 322° Northwest 210 242 8,000  Level Cleveland Center
23:18 42.0544 -82.3617 295° West 186 214 8,000  Level Cleveland Center
23:19 42.0639 -82.4264 281° West 182 209 8,000  Level Cleveland Center
23:20 42.0733 -82.4964 280° West 183 211 8,000  Level Cleveland Center
23:21 42.0783 -82.5639 276° West 183 211 8,000  Level Cleveland Center
23:22 42.0856 -82.6283 279° West 185 213 8,000 -180 Level Cleveland Center
23:23 42.0906 -82.6986 275° West 189 217 7,700 -300 Descending Cleveland Center
23:24 42.0911 -82.7714 271° West 194 223 7,400 -600 Descending Cleveland Center
23:25 42.0897 -82.8439 269° West 195 224 6,500 -840 Descending Cleveland Center
23:26 42.0883 -82.9139 268° West 189 217 5,700 -780 Descending Cleveland Center
23:27 42.0847 -82.9894 266° West 198 228 5,000 -360 Descending Cleveland Center
23:28 42.0833 -83.0592 268° West 187 215 5,000  Level Cleveland Center
23:29 42.0861 -83.1264 273° West 180 207 5,000  Level Cleveland Center
23:30 42.0825 -83.1878 265° West 176 203 5,000  Level Cleveland Center
23:31 42.0831 -83.2522 271° West 172 198 5,000  Level Cleveland Center
23:32 42.0836 -83.3222 271° West 165 190 5,000 -360 Level Cleveland Center
23:33 42.0903 -83.3925 277° West 193 222 4,300 -780 Descending Cleveland Center
23:34 42.0947 -83.4656 275° West 201 231 3,500 -720 Descending Cleveland Center
23:35 42.0908 -83.5381 266° West 203 234 2,900 -600 Descending Cleveland Center
23:36 42.0972 -83.6111 277° West 213 245 2,400 -240 Descending Cleveland Center
23:37 42.1161 -83.6792 291° West 206 237 2,500  Climbing Cleveland Center
23:38 42.1436 -83.6694 15° North 107 123 2,400  Descending Cleveland Center
23:39 42.1653 -83.6339 51° Northeast 124 143 2,500 60 Climbing Cleveland Center
23:39 42.1758 -83.6192 46° Northeast 121 139 2,500 -300 Level FAA TRACON SMA TRACON (SMA)
23:39 42.1836 -83.6075 48° Northeast 114 131 2,300 -600 Descending FAA TRACON SMA TRACON (SMA)
23:40 42.1897 -83.5992 45° Northeast 104 120 2,100 -660 Descending FAA TRACON SMA TRACON (SMA)
23:40 42.1956 -83.5900 49° Northeast 104 120 1,900 -600 Descending FAA TRACON SMA TRACON (SMA)
23:40 42.2028 -83.5781 51° Northeast 107 123 1,700 -600 Descending FAA TRACON SMA TRACON (SMA)
23:41 42.2097 -83.5694 43° Northeast 111 128 1,500 -600 Descending FAA TRACON SMA TRACON (SMA)
23:41 42.2161 -83.5611 44° Northeast 101 116 1,300 -600 Descending FAA TRACON SMA TRACON (SMA)
23:41 42.2219 -83.5522 48° Northeast 101 116 1,100 -600 Descending FAA TRACON SMA TRACON (SMA)
23:42 42.2292 -83.5417 47° Northeast 101 116 900 -300 Descending FAA TRACON SMA TRACON (SMA)
23:42 42.2308 -83.5394 45° Northeast 100 115 900  Level FAA TRACON SMA TRACON (SMA)
23:44 42.2333 -83.5167 355° North  Level FlightAware Approximate
23:51 42.2393 -83.5310 355° North  Level Estimated